EGAA

Belfast International Airport

Belfast, United Kingdom
METAR EGAA 181620Z 19004KT 9999 FEW035 11/05 Q1026
Observed Flight Rules
Oct-18 @ 16:20 UTC (18 minutes ago) Visual Flight Rules
Wind Visibility Clouds
190° at 4 knots 10,000+ meters
  • Few at 3,500' AGL
Temperatures Readings
Current 11°C / 52°F
Dewpoint 5°C / 41°F
Humidity 67%
Altimeter 30.3" Hg
Pressure 1026 hPa
Elevation 81
METAR EGAA 181620Z 19004KT 9999 FEW035 11/05 Q1026
Observed Flight Rules
Oct-18 @ 16:20 UTC
(18 minutes ago)
VFR
Wind Visibility
190° at 4 knots 10,000+ meters
Clouds
  • Few at 3,500' AGL
Temperature Dewpoint
11°C / 52°F 5°C / 41°F
Humidity Altimeter Pressure
67% 30.3" Hg 1026 hPa